sensor_id;sensor_type;location;lat;lon;timestamp;P1;durP1;ratioP1;P2;durP2;ratioP2
16600;SDS011;34891;48.164;11.572;2022-09-02T00:01:49;6.35;;;3.78;;
16600;SDS011;34891;48.164;11.572;2022-09-02T00:06:58;7.50;;;3.63;;
16600;SDS011;34891;48.164;11.572;2022-09-02T00:12:14;5.82;;;3.60;;
16600;SDS011;34891;48.164;11.572;2022-09-02T00:17:20;6.00;;;3.80;;
16600;SDS011;34891;48.164;11.572;2022-09-02T00:22:27;9.65;;;4.22;;
16600;SDS011;34891;48.164;11.572;2022-09-02T00:27:31;8.65;;;4.20;;
16600;SDS011;34891;48.164;11.572;2022-09-02T00:32:36;6.97;;;3.65;;
16600;SDS011;34891;48.164;11.572;2022-09-02T00:37:45;9.32;;;3.90;;
16600;SDS011;34891;48.164;11.572;2022-09-02T00:42:50;8.90;;;3.80;;
16600;SDS011;34891;48.164;11.572;2022-09-02T00:47:58;7.07;;;4.15;;
16600;SDS011;34891;48.164;11.572;2022-09-02T00:53:05;7.38;;;4.15;;
16600;SDS011;34891;48.164;11.572;2022-09-02T00:58:21;8.43;;;4.22;;
16600;SDS011;34891;48.164;11.572;2022-09-02T01:03:31;7.28;;;4.20;;
16600;SDS011;34891;48.164;11.572;2022-09-02T01:08:47;6.00;;;3.72;;
16600;SDS011;34891;48.164;11.572;2022-09-02T01:14:03;8.10;;;4.13;;
16600;SDS011;34891;48.164;11.572;2022-09-02T01:19:11;6.68;;;4.07;;
16600;SDS011;34891;48.164;11.572;2022-09-02T01:24:20;7.43;;;4.22;;
16600;SDS011;34891;48.164;11.572;2022-09-02T01:29:26;7.80;;;4.40;;
16600;SDS011;34891;48.164;11.572;2022-09-02T01:34:37;8.57;;;4.55;;
16600;SDS011;34891;48.164;11.572;2022-09-02T01:39:45;9.43;;;3.97;;
16600;SDS011;34891;48.164;11.572;2022-09-02T01:44:49;7.82;;;4.00;;
16600;SDS011;34891;48.164;11.572;2022-09-02T01:49:54;5.93;;;3.85;;
16600;SDS011;34891;48.164;11.572;2022-09-02T01:55:03;7.80;;;4.00;;
16600;SDS011;34891;48.164;11.572;2022-09-02T02:00:08;6.22;;;3.72;;
16600;SDS011;34891;48.164;11.572;2022-09-02T02:05:18;8.48;;;4.32;;
16600;SDS011;34891;48.164;11.572;2022-09-02T02:10:28;7.63;;;4.25;;
16600;SDS011;34891;48.164;11.572;2022-09-02T02:15:35;7.25;;;3.90;;
16600;SDS011;34891;48.164;11.572;2022-09-02T02:20:42;6.75;;;3.83;;
16600;SDS011;34891;48.164;11.572;2022-09-02T02:25:50;6.88;;;4.50;;
16600;SDS011;34891;48.164;11.572;2022-09-02T02:30:54;5.85;;;3.75;;
16600;SDS011;34891;48.164;11.572;2022-09-02T02:36:00;7.97;;;3.92;;
16600;SDS011;34891;48.164;11.572;2022-09-02T02:41:14;5.97;;;3.85;;
16600;SDS011;34891;48.164;11.572;2022-09-02T02:46:23;5.93;;;4.13;;
16600;SDS011;34891;48.164;11.572;2022-09-02T02:51:28;5.85;;;4.20;;
16600;SDS011;34891;48.164;11.572;2022-09-02T02:56:33;6.45;;;4.22;;
16600;SDS011;34891;48.164;11.572;2022-09-02T03:01:39;8.00;;;4.05;;
16600;SDS011;34891;48.164;11.572;2022-09-02T03:06:46;6.63;;;4.35;;
16600;SDS011;34891;48.164;11.572;2022-09-02T03:16:55;7.60;;;4.10;;
16600;SDS011;34891;48.164;11.572;2022-09-02T03:22:00;6.30;;;4.07;;
16600;SDS011;34891;48.164;11.572;2022-09-02T03:27:04;7.28;;;4.22;;
16600;SDS011;34891;48.164;11.572;2022-09-02T03:32:12;7.82;;;4.75;;
16600;SDS011;34891;48.164;11.572;2022-09-02T03:37:18;9.15;;;3.95;;
16600;SDS011;34891;48.164;11.572;2022-09-02T03:42:22;6.35;;;4.25;;
16600;SDS011;34891;48.164;11.572;2022-09-02T03:47:29;7.25;;;4.28;;
16600;SDS011;34891;48.164;11.572;2022-09-02T03:52:36;8.82;;;4.45;;
16600;SDS011;34891;48.164;11.572;2022-09-02T03:57:41;7.32;;;4.57;;
16600;SDS011;34891;48.164;11.572;2022-09-02T04:03:00;7.47;;;4.78;;
16600;SDS011;34891;48.164;11.572;2022-09-02T04:08:05;9.27;;;4.97;;
16600;SDS011;34891;48.164;11.572;2022-09-02T04:13:14;10.18;;;5.43;;
16600;SDS011;34891;48.164;11.572;2022-09-02T04:18:22;9.77;;;4.80;;
16600;SDS011;34891;48.164;11.572;2022-09-02T04:23:31;11.95;;;4.63;;
16600;SDS011;34891;48.164;11.572;2022-09-02T04:28:45;9.68;;;5.30;;
16600;SDS011;34891;48.164;11.572;2022-09-02T04:34:03;9.70;;;4.95;;
16600;SDS011;34891;48.164;11.572;2022-09-02T04:39:08;9.80;;;5.65;;
16600;SDS011;34891;48.164;11.572;2022-09-02T04:44:20;8.40;;;5.13;;
16600;SDS011;34891;48.164;11.572;2022-09-02T04:49:29;10.82;;;5.53;;
16600;SDS011;34891;48.164;11.572;2022-09-02T04:54:37;9.13;;;5.00;;
16600;SDS011;34891;48.164;11.572;2022-09-02T04:59:41;12.13;;;5.10;;
16600;SDS011;34891;48.164;11.572;2022-09-02T05:04:46;13.32;;;5.78;;
16600;SDS011;34891;48.164;11.572;2022-09-02T05:09:57;10.57;;;5.65;;
16600;SDS011;34891;48.164;11.572;2022-09-02T05:15:04;9.32;;;5.65;;
16600;SDS011;34891;48.164;11.572;2022-09-02T05:20:11;11.50;;;5.68;;
16600;SDS011;34891;48.164;11.572;2022-09-02T05:25:16;11.65;;;5.82;;
16600;SDS011;34891;48.164;11.572;2022-09-02T05:30:22;11.38;;;5.45;;
16600;SDS011;34891;48.164;11.572;2022-09-02T05:35:30;12.07;;;5.63;;
16600;SDS011;34891;48.164;11.572;2022-09-02T05:40:38;7.85;;;4.95;;
16600;SDS011;34891;48.164;11.572;2022-09-02T05:45:44;8.38;;;5.07;;
16600;SDS011;34891;48.164;11.572;2022-09-02T05:50:54;10.88;;;4.82;;
16600;SDS011;34891;48.164;11.572;2022-09-02T05:56:02;8.07;;;4.75;;
16600;SDS011;34891;48.164;11.572;2022-09-02T06:01:07;9.32;;;5.10;;
16600;SDS011;34891;48.164;11.572;2022-09-02T06:06:17;9.25;;;4.75;;
16600;SDS011;34891;48.164;11.572;2022-09-02T06:11:26;7.15;;;4.75;;
16600;SDS011;34891;48.164;11.572;2022-09-02T06:16:41;9.80;;;5.18;;
16600;SDS011;34891;48.164;11.572;2022-09-02T06:21:53;9.10;;;4.50;;
16600;SDS011;34891;48.164;11.572;2022-09-02T06:32:09;9.57;;;4.75;;
16600;SDS011;34891;48.164;11.572;2022-09-02T06:42:48;10.88;;;4.57;;
16600;SDS011;34891;48.164;11.572;2022-09-02T06:47:56;5.88;;;3.78;;
16600;SDS011;34891;48.164;11.572;2022-09-02T06:58:07;4.15;;;3.08;;
16600;SDS011;34891;48.164;11.572;2022-09-02T07:03:15;5.75;;;2.85;;
16600;SDS011;34891;48.164;11.572;2022-09-02T07:08:37;5.82;;;3.30;;
16600;SDS011;34891;48.164;11.572;2022-09-02T07:19:13;5.07;;;3.05;;
16600;SDS011;34891;48.164;11.572;2022-09-02T07:24:22;5.35;;;2.72;;
16600;SDS011;34891;48.164;11.572;2022-09-02T07:29:26;5.40;;;2.83;;
16600;SDS011;34891;48.164;11.572;2022-09-02T07:34:38;4.25;;;2.58;;
16600;SDS011;34891;48.164;11.572;2022-09-02T07:39:42;2.90;;;2.55;;
16600;SDS011;34891;48.164;11.572;2022-09-02T07:44:46;5.13;;;2.55;;
16600;SDS011;34891;48.164;11.572;2022-09-02T07:55:24;4.30;;;2.75;;
16600;SDS011;34891;48.164;11.572;2022-09-02T08:00:27;2.70;;;2.30;;
16600;SDS011;34891;48.164;11.572;2022-09-02T08:05:35;3.65;;;2.58;;
16600;SDS011;34891;48.164;11.572;2022-09-02T08:10:43;4.68;;;2.10;;
16600;SDS011;34891;48.164;11.572;2022-09-02T08:15:57;2.67;;;2.22;;
16600;SDS011;34891;48.164;11.572;2022-09-02T08:21:04;4.80;;;2.13;;
16600;SDS011;34891;48.164;11.572;2022-09-02T08:26:11;5.50;;;2.20;;
16600;SDS011;34891;48.164;11.572;2022-09-02T08:31:19;3.60;;;2.00;;
16600;SDS011;34891;48.164;11.572;2022-09-02T08:36:31;2.92;;;1.80;;
16600;SDS011;34891;48.164;11.572;2022-09-02T08:41:44;2.65;;;1.85;;
16600;SDS011;34891;48.164;11.572;2022-09-02T08:46:59;1.88;;;1.65;;
16600;SDS011;34891;48.164;11.572;2022-09-02T08:52:11;2.67;;;1.90;;
16600;SDS011;34891;48.164;11.572;2022-09-02T08:57:23;2.22;;;2.00;;
16600;SDS011;34891;48.164;11.572;2022-09-02T09:02:33;3.45;;;1.65;;
16600;SDS011;34891;48.164;11.572;2022-09-02T09:07:55;2.25;;;1.70;;
16600;SDS011;34891;48.164;11.572;2022-09-02T09:13:33;2.10;;;1.85;;
16600;SDS011;34891;48.164;11.572;2022-09-02T09:18:45;1.90;;;1.80;;
16600;SDS011;34891;48.164;11.572;2022-09-02T09:23:52;2.30;;;2.08;;
16600;SDS011;34891;48.164;11.572;2022-09-02T09:29:10;4.78;;;1.77;;
16600;SDS011;34891;48.164;11.572;2022-09-02T09:34:20;2.20;;;2.00;;
16600;SDS011;34891;48.164;11.572;2022-09-02T09:39:26;2.33;;;1.90;;
16600;SDS011;34891;48.164;11.572;2022-09-02T09:44:41;2.65;;;1.80;;
16600;SDS011;34891;48.164;11.572;2022-09-02T09:49:52;3.70;;;1.88;;
16600;SDS011;34891;48.164;11.572;2022-09-02T09:55:12;2.30;;;2.00;;
16600;SDS011;34891;48.164;11.572;2022-09-02T10:00:31;1.73;;;1.63;;
16600;SDS011;34891;48.164;11.572;2022-09-02T10:05:39;2.25;;;1.70;;
16600;SDS011;34891;48.164;11.572;2022-09-02T10:10:56;3.47;;;1.92;;
16600;SDS011;34891;48.164;11.572;2022-09-02T10:16:20;4.33;;;1.70;;
16600;SDS011;34891;48.164;11.572;2022-09-02T10:21:31;3.38;;;1.73;;
16600;SDS011;34891;48.164;11.572;2022-09-02T10:27:05;1.80;;;1.70;;
16600;SDS011;34891;48.164;11.572;2022-09-02T10:37:47;1.85;;;1.67;;
16600;SDS011;34891;48.164;11.572;2022-09-02T10:42:59;2.38;;;1.98;;
16600;SDS011;34891;48.164;11.572;2022-09-02T10:48:15;3.03;;;2.10;;
16600;SDS011;34891;48.164;11.572;2022-09-02T10:53:28;2.90;;;1.90;;
16600;SDS011;34891;48.164;11.572;2022-09-02T11:04:12;2.30;;;2.10;;
16600;SDS011;34891;48.164;11.572;2022-09-02T11:09:28;2.85;;;1.77;;
16600;SDS011;34891;48.164;11.572;2022-09-02T11:14:45;2.42;;;1.75;;
16600;SDS011;34891;48.164;11.572;2022-09-02T11:19:53;1.88;;;1.73;;
16600;SDS011;34891;48.164;11.572;2022-09-02T11:25:21;2.10;;;1.70;;
16600;SDS011;34891;48.164;11.572;2022-09-02T11:30:31;2.92;;;1.70;;
16600;SDS011;34891;48.164;11.572;2022-09-02T11:35:40;1.85;;;1.70;;
16600;SDS011;34891;48.164;11.572;2022-09-02T11:41:04;3.92;;;1.75;;
16600;SDS011;34891;48.164;11.572;2022-09-02T11:52:17;2.50;;;1.70;;
16600;SDS011;34891;48.164;11.572;2022-09-02T11:57:26;3.45;;;1.90;;
16600;SDS011;34891;48.164;11.572;2022-09-02T12:02:31;2.10;;;1.90;;
16600;SDS011;34891;48.164;11.572;2022-09-02T12:07:45;1.77;;;1.65;;
16600;SDS011;34891;48.164;11.572;2022-09-02T12:18:27;2.55;;;1.60;;
16600;SDS011;34891;48.164;11.572;2022-09-02T12:29:09;3.80;;;1.70;;
16600;SDS011;34891;48.164;11.572;2022-09-02T12:39:53;2.28;;;1.50;;
16600;SDS011;34891;48.164;11.572;2022-09-02T12:45:02;2.30;;;2.00;;
16600;SDS011;34891;48.164;11.572;2022-09-02T12:50:11;2.88;;;1.85;;
16600;SDS011;34891;48.164;11.572;2022-09-02T12:55:27;1.60;;;1.50;;
16600;SDS011;34891;48.164;11.572;2022-09-02T13:00:36;1.98;;;1.75;;
16600;SDS011;34891;48.164;11.572;2022-09-02T13:05:52;1.40;;;1.35;;
16600;SDS011;34891;48.164;11.572;2022-09-02T13:11:22;3.28;;;1.77;;
16600;SDS011;34891;48.164;11.572;2022-09-02T13:16:51;2.85;;;1.80;;
16600;SDS011;34891;48.164;11.572;2022-09-02T13:22:21;1.98;;;1.42;;
16600;SDS011;34891;48.164;11.572;2022-09-02T13:27:48;1.52;;;1.40;;
16600;SDS011;34891;48.164;11.572;2022-09-02T13:33:12;1.60;;;1.50;;
16600;SDS011;34891;48.164;11.572;2022-09-02T13:38:24;3.45;;;1.88;;
16600;SDS011;34891;48.164;11.572;2022-09-02T13:43:40;1.67;;;1.38;;
16600;SDS011;34891;48.164;11.572;2022-09-02T13:48:44;3.17;;;1.60;;
16600;SDS011;34891;48.164;11.572;2022-09-02T13:53:52;2.83;;;1.50;;
16600;SDS011;34891;48.164;11.572;2022-09-02T13:59:31;3.25;;;1.40;;
16600;SDS011;34891;48.164;11.572;2022-09-02T14:10:30;1.45;;;1.30;;
16600;SDS011;34891;48.164;11.572;2022-09-02T14:32:01;4.35;;;1.50;;
16600;SDS011;34891;48.164;11.572;2022-09-02T14:37:21;2.80;;;1.30;;
16600;SDS011;34891;48.164;11.572;2022-09-02T14:42:27;2.30;;;1.20;;
16600;SDS011;34891;48.164;11.572;2022-09-02T14:47:36;3.15;;;1.48;;
16600;SDS011;34891;48.164;11.572;2022-09-02T14:52:46;2.30;;;1.20;;
16600;SDS011;34891;48.164;11.572;2022-09-02T14:57:56;1.20;;;1.00;;
16600;SDS011;34891;48.164;11.572;2022-09-02T15:03:14;5.13;;;1.33;;
16600;SDS011;34891;48.164;11.572;2022-09-02T15:08:21;1.48;;;1.35;;
16600;SDS011;34891;48.164;11.572;2022-09-02T15:13:30;2.13;;;1.30;;
16600;SDS011;34891;48.164;11.572;2022-09-02T15:18:43;2.45;;;1.27;;
16600;SDS011;34891;48.164;11.572;2022-09-02T15:23:58;3.42;;;1.40;;
16600;SDS011;34891;48.164;11.572;2022-09-02T15:29:04;1.30;;;1.05;;
16600;SDS011;34891;48.164;11.572;2022-09-02T15:34:15;1.30;;;1.20;;
16600;SDS011;34891;48.164;11.572;2022-09-02T15:39:23;1.80;;;1.42;;
16600;SDS011;34891;48.164;11.572;2022-09-02T15:44:30;2.63;;;1.40;;
16600;SDS011;34891;48.164;11.572;2022-09-02T15:49:52;3.05;;;1.15;;
16600;SDS011;34891;48.164;11.572;2022-09-02T15:55:04;3.38;;;1.30;;
16600;SDS011;34891;48.164;11.572;2022-09-02T16:00:09;3.70;;;1.30;;
16600;SDS011;34891;48.164;11.572;2022-09-02T16:05:28;2.33;;;1.30;;
16600;SDS011;34891;48.164;11.572;2022-09-02T16:10:45;4.65;;;1.30;;
16600;SDS011;34891;48.164;11.572;2022-09-02T16:15:58;1.75;;;1.10;;
16600;SDS011;34891;48.164;11.572;2022-09-02T16:21:11;5.57;;;1.30;;
16600;SDS011;34891;48.164;11.572;2022-09-02T16:26:16;3.03;;;1.23;;
16600;SDS011;34891;48.164;11.572;2022-09-02T16:31:34;1.45;;;1.25;;
16600;SDS011;34891;48.164;11.572;2022-09-02T16:42:26;3.10;;;1.60;;
16600;SDS011;34891;48.164;11.572;2022-09-02T16:47:39;3.75;;;1.85;;
16600;SDS011;34891;48.164;11.572;2022-09-02T16:52:44;2.45;;;1.35;;
16600;SDS011;34891;48.164;11.572;2022-09-02T16:58:04;3.85;;;1.60;;
16600;SDS011;34891;48.164;11.572;2022-09-02T17:03:10;1.55;;;1.20;;
16600;SDS011;34891;48.164;11.572;2022-09-02T17:08:19;1.55;;;1.17;;
16600;SDS011;34891;48.164;11.572;2022-09-02T17:13:48;1.73;;;1.42;;
16600;SDS011;34891;48.164;11.572;2022-09-02T17:18:53;2.85;;;1.60;;
16600;SDS011;34891;48.164;11.572;2022-09-02T17:23:56;3.88;;;1.50;;
16600;SDS011;34891;48.164;11.572;2022-09-02T17:29:07;5.50;;;2.05;;
16600;SDS011;34891;48.164;11.572;2022-09-02T17:34:31;1.77;;;1.50;;
16600;SDS011;34891;48.164;11.572;2022-09-02T17:39:39;3.15;;;1.45;;
16600;SDS011;34891;48.164;11.572;2022-09-02T17:55:34;4.10;;;1.70;;
16600;SDS011;34891;48.164;11.572;2022-09-02T18:00:37;2.88;;;1.42;;
16600;SDS011;34891;48.164;11.572;2022-09-02T18:05:50;3.13;;;1.60;;
16600;SDS011;34891;48.164;11.572;2022-09-02T18:10:57;2.20;;;1.60;;
16600;SDS011;34891;48.164;11.572;2022-09-02T18:16:05;4.80;;;1.77;;
16600;SDS011;34891;48.164;11.572;2022-09-02T18:21:23;2.42;;;1.60;;
16600;SDS011;34891;48.164;11.572;2022-09-02T18:26:34;4.28;;;1.50;;
16600;SDS011;34891;48.164;11.572;2022-09-02T18:31:46;4.38;;;1.80;;
16600;SDS011;34891;48.164;11.572;2022-09-02T18:36:54;4.15;;;1.85;;
16600;SDS011;34891;48.164;11.572;2022-09-02T18:42:06;4.38;;;2.13;;
16600;SDS011;34891;48.164;11.572;2022-09-02T18:52:20;5.00;;;2.05;;
16600;SDS011;34891;48.164;11.572;2022-09-02T18:57:29;5.40;;;1.80;;
16600;SDS011;34891;48.164;11.572;2022-09-02T19:02:34;5.65;;;2.53;;
16600;SDS011;34891;48.164;11.572;2022-09-02T19:07:40;5.47;;;1.95;;
16600;SDS011;34891;48.164;11.572;2022-09-02T19:13:03;3.30;;;1.92;;
16600;SDS011;34891;48.164;11.572;2022-09-02T19:18:05;5.18;;;1.70;;
16600;SDS011;34891;48.164;11.572;2022-09-02T19:23:09;3.87;;;1.93;;
16600;SDS011;34891;48.164;11.572;2022-09-02T19:28:16;4.65;;;1.98;;
16600;SDS011;34891;48.164;11.572;2022-09-02T19:33:20;3.33;;;2.03;;
16600;SDS011;34891;48.164;11.572;2022-09-02T19:38:26;3.70;;;1.80;;
16600;SDS011;34891;48.164;11.572;2022-09-02T19:43:34;3.67;;;1.73;;
16600;SDS011;34891;48.164;11.572;2022-09-02T19:48:45;5.82;;;1.75;;
16600;SDS011;34891;48.164;11.572;2022-09-02T19:53:49;5.40;;;2.13;;
16600;SDS011;34891;48.164;11.572;2022-09-02T19:58:54;3.78;;;2.03;;
16600;SDS011;34891;48.164;11.572;2022-09-02T20:04:00;2.53;;;1.60;;
16600;SDS011;34891;48.164;11.572;2022-09-02T20:14:11;4.60;;;2.00;;
16600;SDS011;34891;48.164;11.572;2022-09-02T20:19:14;3.88;;;1.90;;
16600;SDS011;34891;48.164;11.572;2022-09-02T20:24:17;4.97;;;2.45;;
16600;SDS011;34891;48.164;11.572;2022-09-02T20:29:28;5.57;;;1.95;;
16600;SDS011;34891;48.164;11.572;2022-09-02T20:34:37;4.50;;;2.10;;
16600;SDS011;34891;48.164;11.572;2022-09-02T20:39:47;4.95;;;1.92;;
16600;SDS011;34891;48.164;11.572;2022-09-02T20:44:57;4.32;;;1.88;;
16600;SDS011;34891;48.164;11.572;2022-09-02T20:50:10;2.72;;;2.00;;
16600;SDS011;34891;48.164;11.572;2022-09-02T20:55:18;4.60;;;2.15;;
16600;SDS011;34891;48.164;11.572;2022-09-02T21:00:24;3.33;;;1.98;;
16600;SDS011;34891;48.164;11.572;2022-09-02T21:05:27;3.33;;;1.85;;
16600;SDS011;34891;48.164;11.572;2022-09-02T21:10:31;3.60;;;2.08;;
16600;SDS011;34891;48.164;11.572;2022-09-02T21:15:39;2.95;;;1.60;;
16600;SDS011;34891;48.164;11.572;2022-09-02T21:20:45;2.30;;;1.63;;
16600;SDS011;34891;48.164;11.572;2022-09-02T21:25:50;3.88;;;1.80;;
16600;SDS011;34891;48.164;11.572;2022-09-02T21:30:59;5.18;;;1.98;;
16600;SDS011;34891;48.164;11.572;2022-09-02T21:36:03;3.03;;;1.90;;
16600;SDS011;34891;48.164;11.572;2022-09-02T21:41:14;3.80;;;2.13;;
16600;SDS011;34891;48.164;11.572;2022-09-02T21:46:25;2.92;;;1.95;;
16600;SDS011;34891;48.164;11.572;2022-09-02T21:51:30;3.58;;;2.03;;
16600;SDS011;34891;48.164;11.572;2022-09-02T21:56:44;3.20;;;1.88;;
16600;SDS011;34891;48.164;11.572;2022-09-02T22:01:53;6.18;;;2.33;;
16600;SDS011;34891;48.164;11.572;2022-09-02T22:06:58;4.53;;;2.00;;
16600;SDS011;34891;48.164;11.572;2022-09-02T22:12:06;3.70;;;2.05;;
16600;SDS011;34891;48.164;11.572;2022-09-02T22:17:15;5.28;;;2.33;;
16600;SDS011;34891;48.164;11.572;2022-09-02T22:22:20;2.88;;;1.90;;
16600;SDS011;34891;48.164;11.572;2022-09-02T22:27:25;2.92;;;1.98;;
16600;SDS011;34891;48.164;11.572;2022-09-02T22:32:35;4.25;;;1.95;;
16600;SDS011;34891;48.164;11.572;2022-09-02T22:37:41;3.13;;;2.13;;
16600;SDS011;34891;48.164;11.572;2022-09-02T22:42:49;4.22;;;1.83;;
16600;SDS011;34891;48.164;11.572;2022-09-02T22:47:55;4.38;;;1.83;;
16600;SDS011;34891;48.164;11.572;2022-09-02T22:53:18;4.43;;;1.98;;
16600;SDS011;34891;48.164;11.572;2022-09-02T22:58:26;5.65;;;1.80;;
16600;SDS011;34891;48.164;11.572;2022-09-02T23:03:36;3.63;;;1.90;;
16600;SDS011;34891;48.164;11.572;2022-09-02T23:08:43;6.13;;;2.20;;
16600;SDS011;34891;48.164;11.572;2022-09-02T23:13:49;3.73;;;1.77;;
16600;SDS011;34891;48.164;11.572;2022-09-02T23:19:04;3.65;;;1.95;;
16600;SDS011;34891;48.164;11.572;2022-09-02T23:24:11;3.75;;;2.20;;
16600;SDS011;34891;48.164;11.572;2022-09-02T23:29:20;4.15;;;2.05;;
16600;SDS011;34891;48.164;11.572;2022-09-02T23:34:33;4.05;;;2.10;;
16600;SDS011;34891;48.164;11.572;2022-09-02T23:39:43;3.90;;;2.03;;
16600;SDS011;34891;48.164;11.572;2022-09-02T23:44:49;2.60;;;1.98;;
16600;SDS011;34891;48.164;11.572;2022-09-02T23:49:55;2.47;;;1.80;;
16600;SDS011;34891;48.164;11.572;2022-09-02T23:55:05;5.47;;;1.95;;
